sensor_id;sensor_type;location;lat;lon;timestamp;temperature;humidity
16247;DHT22;8231;50.866;7.944;2023-04-15T12:07:12;12.10;99.90
16247;DHT22;8231;50.866;7.944;2023-04-15T12:09:41;11.30;99.90
16247;DHT22;8231;50.866;7.944;2023-04-15T12:12:10;10.80;99.90
16247;DHT22;8231;50.866;7.944;2023-04-15T12:14:39;10.70;99.90
16247;DHT22;8231;50.866;7.944;2023-04-15T12:17:09;10.70;99.90
16247;DHT22;8231;50.866;7.944;2023-04-15T12:19:40;10.90;99.90
16247;DHT22;8231;50.866;7.944;2023-04-15T12:22:16;11.00;99.90
16247;DHT22;8231;50.866;7.944;2023-04-15T12:24:54;11.40;99.90
16247;DHT22;8231;50.866;7.944;2023-04-15T12:27:30;10.50;99.90
16247;DHT22;8231;50.866;7.944;2023-04-15T12:30:05;10.60;99.90
16247;DHT22;8231;50.866;7.944;2023-04-15T12:32:42;10.70;99.90
16247;DHT22;8231;50.866;7.944;2023-04-15T12:35:17;11.10;99.90
16247;DHT22;8231;50.866;7.944;2023-04-15T12:38:00;10.90;99.90
16247;DHT22;8231;50.866;7.944;2023-04-15T12:40:40;11.50;99.90
16247;DHT22;8231;50.866;7.944;2023-04-15T12:43:17;10.60;99.90
16247;DHT22;8231;50.866;7.944;2023-04-15T12:45:51;10.70;99.90
16247;DHT22;8231;50.866;7.944;2023-04-15T12:48:26;10.50;99.90
16247;DHT22;8231;50.866;7.944;2023-04-15T12:51:03;10.40;99.90
16247;DHT22;8231;50.866;7.944;2023-04-15T12:53:38;10.50;99.90
16247;DHT22;8231;50.866;7.944;2023-04-15T12:56:17;10.50;99.90
16247;DHT22;8231;50.866;7.944;2023-04-15T12:59:14;10.50;99.90
16247;DHT22;8231;50.866;7.944;2023-04-15T13:01:55;10.50;99.90
16247;DHT22;8231;50.866;7.944;2023-04-15T13:04:27;10.70;99.90
16247;DHT22;8231;50.866;7.944;2023-04-15T13:07:00;10.40;99.90
16247;DHT22;8231;50.866;7.944;2023-04-15T13:09:38;10.60;99.90
16247;DHT22;8231;50.866;7.944;2023-04-15T13:12:22;10.40;99.90
16247;DHT22;8231;50.866;7.944;2023-04-15T13:15:08;10.50;99.90
16247;DHT22;8231;50.866;7.944;2023-04-15T13:17:50;10.30;99.90
16247;DHT22;8231;50.866;7.944;2023-04-15T13:20:21;10.40;99.90
16247;DHT22;8231;50.866;7.944;2023-04-15T13:23:23;10.40;99.90
16247;DHT22;8231;50.866;7.944;2023-04-15T13:25:56;9.50;99.90
16247;DHT22;8231;50.866;7.944;2023-04-15T13:28:30;10.90;99.90
16247;DHT22;8231;50.866;7.944;2023-04-15T13:31:07;10.50;99.90
16247;DHT22;8231;50.866;7.944;2023-04-15T13:33:35;11.40;99.90
16247;DHT22;8231;50.866;7.944;2023-04-15T13:36:04;10.60;99.90
16247;DHT22;8231;50.866;7.944;2023-04-15T13:38:33;10.60;99.90
16247;DHT22;8231;50.866;7.944;2023-04-15T13:41:04;10.50;99.90
16247;DHT22;8231;50.866;7.944;2023-04-15T13:43:32;10.40;99.90
16247;DHT22;8231;50.866;7.944;2023-04-15T13:46:01;10.70;99.90
16247;DHT22;8231;50.866;7.944;2023-04-15T13:48:29;10.50;99.90
16247;DHT22;8231;50.866;7.944;2023-04-15T13:51:02;11.70;99.90
16247;DHT22;8231;50.866;7.944;2023-04-15T13:53:30;10.20;99.90
16247;DHT22;8231;50.866;7.944;2023-04-15T13:56:06;10.40;99.90
16247;DHT22;8231;50.866;7.944;2023-04-15T13:58:36;10.10;99.90
16247;DHT22;8231;50.866;7.944;2023-04-15T14:01:05;10.70;99.90
16247;DHT22;8231;50.866;7.944;2023-04-15T14:09:10;10.10;99.90
16247;DHT22;8231;50.866;7.944;2023-04-15T14:15:54;10.00;99.90
16247;DHT22;8231;50.866;7.944;2023-04-15T15:26:52;9.50;99.90
16247;DHT22;8231;50.866;7.944;2023-04-15T15:29:32;9.30;99.90
16247;DHT22;8231;50.866;7.944;2023-04-15T15:32:04;9.50;99.90
16247;DHT22;8231;50.866;7.944;2023-04-15T15:34:36;9.40;99.90
16247;DHT22;8231;50.866;7.944;2023-04-15T15:37:07;9.30;99.90
16247;DHT22;8231;50.866;7.944;2023-04-15T15:39:37;10.00;99.90
16247;DHT22;8231;50.866;7.944;2023-04-15T15:42:07;9.20;99.90
16247;DHT22;8231;50.866;7.944;2023-04-15T15:44:38;9.50;99.90
16247;DHT22;8231;50.866;7.944;2023-04-15T15:47:07;9.50;99.90
16247;DHT22;8231;50.866;7.944;2023-04-15T15:49:35;9.10;99.90
16247;DHT22;8231;50.866;7.944;2023-04-15T15:52:04;8.90;99.90
16247;DHT22;8231;50.866;7.944;2023-04-15T15:54:33;9.00;99.90
16247;DHT22;8231;50.866;7.944;2023-04-15T15:57:03;9.30;99.90
16247;DHT22;8231;50.866;7.944;2023-04-15T15:59:35;9.00;99.90
16247;DHT22;8231;50.866;7.944;2023-04-15T16:02:11;9.10;99.90
16247;DHT22;8231;50.866;7.944;2023-04-15T16:05:11;8.90;99.90
16247;DHT22;8231;50.866;7.944;2023-04-15T16:08:10;9.20;99.90
16247;DHT22;8231;50.866;7.944;2023-04-15T16:10:42;8.90;99.90
16247;DHT22;8231;50.866;7.944;2023-04-15T16:13:17;9.30;99.90
16247;DHT22;8231;50.866;7.944;2023-04-15T16:15:57;8.90;99.90
16247;DHT22;8231;50.866;7.944;2023-04-15T16:18:37;9.10;99.90
16247;DHT22;8231;50.866;7.944;2023-04-15T16:21:15;8.60;99.90
16247;DHT22;8231;50.866;7.944;2023-04-15T16:24:24;8.90;99.90
16247;DHT22;8231;50.866;7.944;2023-04-15T16:27:51;8.80;99.90
16247;DHT22;8231;50.866;7.944;2023-04-15T16:30:58;9.00;99.90
16247;DHT22;8231;50.866;7.944;2023-04-15T16:33:41;9.00;99.90
16247;DHT22;8231;50.866;7.944;2023-04-15T16:36:32;8.60;99.90
16247;DHT22;8231;50.866;7.944;2023-04-15T16:39:13;8.80;99.90
16247;DHT22;8231;50.866;7.944;2023-04-15T16:50:39;8.70;99.90
16247;DHT22;8231;50.866;7.944;2023-04-15T16:54:18;9.20;99.90
16247;DHT22;8231;50.866;7.944;2023-04-15T17:01:41;9.60;99.90
16247;DHT22;8231;50.866;7.944;2023-04-15T17:05:13;8.60;99.90
16247;DHT22;8231;50.866;7.944;2023-04-15T17:09:06;8.60;99.90
16247;DHT22;8231;50.866;7.944;2023-04-15T17:12:15;8.30;99.90
16247;DHT22;8231;50.866;7.944;2023-04-15T17:16:10;8.60;99.90
16247;DHT22;8231;50.866;7.944;2023-04-15T17:20:21;8.60;99.90
16247;DHT22;8231;50.866;7.944;2023-04-15T17:27:55;8.50;99.90
16247;DHT22;8231;50.866;7.944;2023-04-15T17:31:23;8.50;99.90
16247;DHT22;8231;50.866;7.944;2023-04-15T17:35:28;8.50;99.90
16247;DHT22;8231;50.866;7.944;2023-04-15T17:38:41;8.40;99.90
16247;DHT22;8231;50.866;7.944;2023-04-15T17:42:04;8.30;99.90
16247;DHT22;8231;50.866;7.944;2023-04-15T17:45:50;8.30;99.90
16247;DHT22;8231;50.866;7.944;2023-04-15T17:49:38;8.80;99.90
16247;DHT22;8231;50.866;7.944;2023-04-15T17:56:37;8.40;99.90
16247;DHT22;8231;50.866;7.944;2023-04-15T18:00:31;8.30;99.90
16247;DHT22;8231;50.866;7.944;2023-04-15T18:04:11;8.10;99.90
16247;DHT22;8231;50.866;7.944;2023-04-15T18:07:56;9.50;99.90
16247;DHT22;8231;50.866;7.944;2023-04-15T18:11:35;8.10;99.90
16247;DHT22;8231;50.866;7.944;2023-04-15T18:15:07;8.70;99.90
16247;DHT22;8231;50.866;7.944;2023-04-15T18:19:15;8.30;99.90
16247;DHT22;8231;50.866;7.944;2023-04-15T18:23:06;8.20;99.90
16247;DHT22;8231;50.866;7.944;2023-04-15T18:26:25;8.20;99.90
16247;DHT22;8231;50.866;7.944;2023-04-15T18:33:11;8.10;99.90
16247;DHT22;8231;50.866;7.944;2023-04-15T18:52:09;6.80;99.90
16247;DHT22;8231;50.866;7.944;2023-04-15T18:56:18;8.00;99.90
16247;DHT22;8231;50.866;7.944;2023-04-15T19:00:51;8.20;99.90
16247;DHT22;8231;50.866;7.944;2023-04-15T19:04:37;8.20;99.90
16247;DHT22;8231;50.866;7.944;2023-04-15T19:08:42;8.10;99.90
16247;DHT22;8231;50.866;7.944;2023-04-15T19:17:27;8.00;99.90
16247;DHT22;8231;50.866;7.944;2023-04-15T19:25:48;8.60;99.90
16247;DHT22;8231;50.866;7.944;2023-04-15T19:30:10;8.10;99.90
16247;DHT22;8231;50.866;7.944;2023-04-15T19:38:19;8.00;99.90
16247;DHT22;8231;50.866;7.944;2023-04-15T19:50:11;8.00;99.90
16247;DHT22;8231;50.866;7.944;2023-04-15T19:53:59;8.20;99.90
16247;DHT22;8231;50.866;7.944;2023-04-15T19:57:31;8.10;99.90
16247;DHT22;8231;50.866;7.944;2023-04-15T20:01:00;9.10;99.90
16247;DHT22;8231;50.866;7.944;2023-04-15T20:04:53;8.00;99.90
16247;DHT22;8231;50.866;7.944;2023-04-15T20:08:54;8.00;99.90
16247;DHT22;8231;50.866;7.944;2023-04-15T20:12:26;7.80;99.90
16247;DHT22;8231;50.866;7.944;2023-04-15T20:15:37;8.00;99.90
16247;DHT22;8231;50.866;7.944;2023-04-15T20:18:31;8.60;99.90
16247;DHT22;8231;50.866;7.944;2023-04-15T20:22:29;8.10;99.90
16247;DHT22;8231;50.866;7.944;2023-04-15T20:26:12;8.00;99.90
16247;DHT22;8231;50.866;7.944;2023-04-15T20:29:37;8.30;99.90
16247;DHT22;8231;50.866;7.944;2023-04-15T20:33:13;8.00;99.90
16247;DHT22;8231;50.866;7.944;2023-04-15T20:54:18;8.00;99.90
16247;DHT22;8231;50.866;7.944;2023-04-15T21:06:47;8.00;99.90
16247;DHT22;8231;50.866;7.944;2023-04-15T21:15:37;7.90;99.90
16247;DHT22;8231;50.866;7.944;2023-04-15T21:56:54;7.80;99.90
16247;DHT22;8231;50.866;7.944;2023-04-15T22:00:31;7.90;99.90
16247;DHT22;8231;50.866;7.944;2023-04-15T22:03:53;7.90;99.90
16247;DHT22;8231;50.866;7.944;2023-04-15T22:07:50;7.90;99.90
16247;DHT22;8231;50.866;7.944;2023-04-15T22:45:44;8.50;99.90
16247;DHT22;8231;50.866;7.944;2023-04-15T22:49:05;7.60;99.90
16247;DHT22;8231;50.866;7.944;2023-04-15T22:52:18;7.90;99.90
16247;DHT22;8231;50.866;7.944;2023-04-15T22:55:05;7.80;99.90
16247;DHT22;8231;50.866;7.944;2023-04-15T22:58:07;7.70;99.90
16247;DHT22;8231;50.866;7.944;2023-04-15T23:01:03;7.60;99.90
16247;DHT22;8231;50.866;7.944;2023-04-15T23:03:57;7.70;99.90
16247;DHT22;8231;50.866;7.944;2023-04-15T23:07:41;8.00;99.90
16247;DHT22;8231;50.866;7.944;2023-04-15T23:10:56;7.90;99.90
16247;DHT22;8231;50.866;7.944;2023-04-15T23:14:02;7.70;99.90
16247;DHT22;8231;50.866;7.944;2023-04-15T23:17:26;8.00;99.90
16247;DHT22;8231;50.866;7.944;2023-04-15T23:21:09;7.80;99.90
16247;DHT22;8231;50.866;7.944;2023-04-15T23:25:12;7.80;99.90
16247;DHT22;8231;50.866;7.944;2023-04-15T23:28:42;8.10;99.90
16247;DHT22;8231;50.866;7.944;2023-04-15T23:39:33;7.70;99.90
16247;DHT22;8231;50.866;7.944;2023-04-15T23:43:17;7.70;99.90
16247;DHT22;8231;50.866;7.944;2023-04-15T23:49:58;8.50;99.90
16247;DHT22;8231;50.866;7.944;2023-04-15T23:53:21;7.90;99.90
16247;DHT22;8231;50.866;7.944;2023-04-15T23:56:26;7.90;99.90
